Time;durP1;ratioP1;P1;durP2;ratioP2;P2;SDS_P1;SDS_P2;PMS_P1;PMS_P2;Temp;Humidity;BMP_temperature;BMP_pressure;BME280_temperature;BME280_humidity;BME280_pressure;Samples;Min_cycle;Max_cycle;Signal;HPM_P1;HPM_P2
2023/09/09 09:41:23;;;;;;;;;9.00;8.60;;;;;;;;5094815;27;13434;-66
2023/09/09 09:43:49;;;;;;;;;10.60;9.80;;;;;;;;5085650;28;8830;-66
2023/09/09 09:46:21;;;;;;;;;5.60;5.60;;;;;;;;5083327;28;8853;-67
2023/09/09 09:48:47;;;;;;;;;9.60;9.00;;;;;;;;5084644;28;8928;-66
2023/09/09 09:51:13;;;;;;;;;10.75;10.75;;;;;;;;5086738;28;8845;-66
2023/09/09 09:54:04;;;;;;;;;9.00;8.00;;;;;;;;5086712;28;8779;-66
2023/09/09 09:56:29;;;;;;;;;9.00;8.20;;;;;;;;5086493;28;8905;-64
2023/09/09 09:58:55;;;;;;;;;9.00;9.00;;;;;;;;5086416;28;8954;-70
2023/09/09 10:01:21;;;;;;;;;9.00;8.40;;;;;;;;5086835;28;8802;-69
2023/09/09 10:03:51;;;;;;;;;9.00;9.00;;;;;;;;5086520;28;8845;-68
2023/09/09 10:06:21;;;;;;;;;8.00;8.00;;;;;;;;5086549;28;8892;-69
2023/09/09 10:08:48;;;;;;;;;12.20;11.00;;;;;;;;5082254;28;8791;-69
2023/09/09 10:11:18;;;;;;;;;8.00;8.00;;;;;;;;5075101;28;8834;-68
2023/09/09 10:13:46;;;;;;;;;7.20;7.20;;;;;;;;5065881;28;9005;-69
2023/09/09 10:16:12;;;;;;;;;8.20;8.20;;;;;;;;5075805;28;8976;-74
2023/09/09 10:18:38;;;;;;;;;7.75;7.75;;;;;;;;5085870;28;8795;-68
2023/09/09 10:21:06;;;;;;;;;9.50;6.75;;;;;;;;5085200;28;8835;-67
2023/09/09 10:23:32;;;;;;;;;8.00;8.00;;;;;;;;5085535;28;8790;-72
2023/09/09 10:25:59;;;;;;;;;7.80;6.20;;;;;;;;5085303;28;8790;-70
2023/09/09 10:28:24;;;;;;;;;7.80;7.00;;;;;;;;5085305;28;8925;-70
2023/09/09 10:30:50;;;;;;;;;5.50;5.50;;;;;;;;5084969;28;8972;-71
2023/09/09 10:33:17;;;;;;;;;6.60;6.60;;;;;;;;5085131;28;8844;-70
2023/09/09 10:35:44;;;;;;;;;7.20;7.20;;;;;;;;5085112;28;8825;-69
2023/09/09 10:38:11;;;;;;;;;6.20;6.20;;;;;;;;5085253;28;9607;-68
2023/09/09 10:40:37;;;;;;;;;9.60;7.20;;;;;;;;5085018;28;8834;-69
2023/09/09 10:43:02;;;;;;;;;7.00;7.00;;;;;;;;5085723;28;9653;-72
2023/09/09 10:45:29;;;;;;;;;8.50;7.75;;;;;;;;5085649;28;8802;-70
2023/09/09 10:47:54;;;;;;;;;6.00;6.00;;;;;;;;5085650;28;9525;-67
2023/09/09 10:50:19;;;;;;;;;9.25;9.25;;;;;;;;5085380;28;8840;-68
2023/09/09 10:52:45;;;;;;;;;8.00;8.00;;;;;;;;5071789;28;9497;-69
2023/09/09 10:55:13;;;;;;;;;9.25;9.25;;;;;;;;5070057;28;8818;-70
2023/09/09 10:57:39;;;;;;;;;7.00;6.60;;;;;;;;5071624;28;8791;-68
2023/09/09 11:00:10;;;;;;;;;8.75;8.75;;;;;;;;5071244;28;8894;-69
2023/09/09 11:02:46;;;;;;;;;8.00;7.60;;;;;;;;5070240;28;8815;-71
2023/09/09 11:05:18;;;;;;;;;7.80;7.80;;;;;;;;5071369;28;9541;-72
2023/09/09 11:07:44;;;;;;;;;8.80;7.00;;;;;;;;5070242;28;8842;-69
2023/09/09 11:10:14;;;;;;;;;8.75;8.75;;;;;;;;5071637;28;8977;-70
2023/09/09 11:12:48;;;;;;;;;6.75;6.75;;;;;;;;5071999;28;8834;-69
2023/09/09 11:15:15;;;;;;;;;6.50;6.50;;;;;;;;5071403;28;8856;-70
2023/09/09 11:17:42;;;;;;;;;8.50;8.50;;;;;;;;5071334;28;8937;-69
2023/09/09 11:20:12;;;;;;;;;8.25;7.75;;;;;;;;5071204;28;8826;-68
2023/09/09 11:22:38;;;;;;;;;7.75;7.75;;;;;;;;5069560;28;9115;-69
2023/09/09 11:25:03;;;;;;;;;6.00;6.00;;;;;;;;5070045;28;8787;-69
2023/09/09 11:27:29;;;;;;;;;7.00;7.00;;;;;;;;5070190;28;9597;-71
2023/09/09 11:29:54;;;;;;;;;6.67;6.00;;;;;;;;5070477;28;8802;-72
2023/09/09 11:32:25;;;;;;;;;7.33;7.33;;;;;;;;5070373;28;9579;-69
2023/09/09 11:34:51;;;;;;;;;6.75;6.75;;;;;;;;5070371;28;8806;-68
2023/09/09 11:37:16;;;;;;;;;7.00;7.00;;;;;;;;5070783;28;8802;-69
2023/09/09 11:39:42;;;;;;;;;8.00;7.00;;;;;;;;5069963;28;8904;-68
2023/09/09 11:42:07;;;;;;;;;5.67;5.67;;;;;;;;5070810;28;8790;-68
2023/09/09 11:44:42;;;;;;;;;7.00;7.00;;;;;;;;5069222;28;9552;-69
2023/09/09 11:47:07;;;;;;;;;9.50;8.00;;;;;;;;5070665;28;9563;-68
2023/09/09 11:49:33;;;;;;;;;9.00;7.67;;;;;;;;5069484;28;8822;-67
2023/09/09 11:51:59;;;;;;;;;7.00;7.00;;;;;;;;5063904;28;8831;-68
2023/09/09 11:54:24;;;;;;;;;6.75;5.75;;;;;;;;5049651;28;8801;-68
2023/09/09 11:56:50;;;;;;;;;7.00;7.00;;;;;;;;5050956;28;8843;-69
2023/09/09 11:59:15;;;;;;;;;7.00;7.00;;;;;;;;5068685;28;8928;-68
2023/09/09 12:01:41;;;;;;;;;8.00;7.00;;;;;;;;5070145;28;8842;-68
2023/09/09 12:04:06;;;;;;;;;6.00;6.00;;;;;;;;5069537;28;8814;-68
2023/09/09 12:06:32;;;;;;;;;8.00;8.00;;;;;;;;5068903;28;8891;-67
2023/09/09 12:08:58;;;;;;;;;8.00;8.00;;;;;;;;5070121;28;8906;-68
2023/09/09 12:11:23;;;;;;;;;11.00;11.00;;;;;;;;5070399;28;8807;-67
2023/09/09 12:13:49;;;;;;;;;6.00;6.00;;;;;;;;5070105;28;8829;-67
2023/09/09 12:16:14;;;;;;;;;7.67;7.00;;;;;;;;5069627;28;8845;-68
2023/09/09 12:18:39;;;;;;;;;5.00;5.00;;;;;;;;5070215;28;8933;-68
2023/09/09 12:21:07;;;;;;;;;6.33;6.00;;;;;;;;5070105;28;8802;-68
2023/09/09 12:23:33;;;;;;;;;8.00;8.00;;;;;;;;5069512;28;8845;-69
2023/09/09 12:26:12;;;;;;;;;8.50;8.50;;;;;;;;5068712;28;9560;-67
2023/09/09 12:28:41;;;;;;;;;9.00;8.00;;;;;;;;5069993;28;8798;-70
2023/09/09 12:31:06;;;;;;;;;6.75;6.50;;;;;;;;5069665;28;8798;-69
2023/09/09 12:33:38;;;;;;;;;7.67;7.67;;;;;;;;5069390;28;8822;-67
2023/09/09 12:36:03;;;;;;;;;8.25;8.25;;;;;;;;5068998;28;8817;-69
2023/09/09 12:38:36;;;;;;;;;7.00;7.00;;;;;;;;5067846;28;8814;-67
2023/09/09 12:41:06;;;;;;;;;7.75;7.75;;;;;;;;5069035;28;8887;-70
2023/09/09 12:43:31;;;;;;;;;7.00;7.00;;;;;;;;5069036;28;8837;-68
2023/09/09 12:46:13;;;;;;;;;7.00;7.00;;;;;;;;5069117;28;9524;-68
2023/09/09 12:48:58;;;;;;;;;11.00;9.75;;;;;;;;5069546;28;8787;-71
2023/09/09 12:51:24;;;;;;;;;7.00;7.00;;;;;;;;5069571;28;8787;-70
2023/09/09 12:53:51;;;;;;;;;7.75;7.25;;;;;;;;5069684;28;8826;-70
2023/09/09 12:56:16;;;;;;;;;9.00;9.00;;;;;;;;5068209;28;8929;-67
2023/09/09 12:58:41;;;;;;;;;9.00;9.00;;;;;;;;5069631;28;8983;-68
2023/09/09 13:01:07;;;;;;;;;11.00;10.00;;;;;;;;5069289;28;8911;-68
2023/09/09 13:03:32;;;;;;;;;9.00;9.00;;;;;;;;5069531;28;8814;-68
2023/09/09 13:05:58;;;;;;;;;8.67;8.67;;;;;;;;5069370;28;10339;-70
2023/09/09 13:08:23;;;;;;;;;10.00;10.00;;;;;;;;5068692;28;8815;-68
2023/09/09 13:10:48;;;;;;;;;8.67;8.67;;;;;;;;5068001;28;8837;-83
2023/09/09 13:13:13;;;;;;;;;9.00;8.00;;;;;;;;5067937;28;9658;-76
2023/09/09 13:15:39;;;;;;;;;8.33;8.33;;;;;;;;5069076;28;8771;-74
2023/09/09 13:18:04;;;;;;;;;8.67;8.67;;;;;;;;5069128;28;8880;-80
2023/09/09 13:20:30;;;;;;;;;9.67;9.00;;;;;;;;5068859;28;8946;-70
2023/09/09 13:22:55;;;;;;;;;8.75;8.00;;;;;;;;5068608;28;8817;-69
2023/09/09 13:25:21;;;;;;;;;8.67;7.00;;;;;;;;5068833;28;8794;-69
2023/09/09 13:27:46;;;;;;;;;7.00;7.00;;;;;;;;5067181;28;8803;-69
2023/09/09 13:30:11;;;;;;;;;8.33;8.33;;;;;;;;5069398;28;8903;-68
2023/09/09 13:32:37;;;;;;;;;9.67;8.67;;;;;;;;5068761;28;8806;-71
2023/09/09 13:35:02;;;;;;;;;8.33;8.33;;;;;;;;5068890;28;8943;-69
2023/09/09 13:37:31;;;;;;;;;12.33;12.33;;;;;;;;5067002;28;8841;-70
2023/09/09 13:39:56;;;;;;;;;9.25;9.00;;;;;;;;5068494;28;8838;-69
2023/09/09 13:42:21;;;;;;;;;7.00;7.00;;;;;;;;5068732;28;8826;-70
2023/09/09 13:44:47;;;;;;;;;8.00;8.00;;;;;;;;5068627;28;8979;-71
2023/09/09 13:47:12;;;;;;;;;7.67;7.67;;;;;;;;5067082;28;8970;-71
2023/09/09 13:49:38;;;;;;;;;9.00;9.00;;;;;;;;5068728;28;8876;-71
2023/09/09 13:52:04;;;;;;;;;8.75;8.75;;;;;;;;5068137;28;8794;-72
2023/09/09 13:54:30;;;;;;;;;8.00;6.75;;;;;;;;5068650;28;8783;-71
2023/09/09 13:56:56;;;;;;;;;7.33;7.33;;;;;;;;5068830;28;8805;-71
2023/09/09 13:59:21;;;;;;;;;10.00;9.33;;;;;;;;5068251;28;8861;-70
2023/09/09 14:01:47;;;;;;;;;11.00;11.00;;;;;;;;5068252;28;8838;-70
2023/09/09 14:04:12;;;;;;;;;7.75;7.75;;;;;;;;5067813;28;8840;-72
2023/09/09 14:06:38;;;;;;;;;9.67;8.67;;;;;;;;5066679;28;8814;-71
2023/09/09 14:09:03;;;;;;;;;9.00;8.00;;;;;;;;5068353;28;8826;-72
2023/09/09 14:11:28;;;;;;;;;9.00;9.00;;;;;;;;5068403;28;8814;-73
2023/09/09 14:13:53;;;;;;;;;10.00;9.00;;;;;;;;5068429;28;8815;-69
2023/09/09 14:16:19;;;;;;;;;7.00;7.00;;;;;;;;5068281;28;9563;-70
2023/09/09 14:18:44;;;;;;;;;12.33;9.33;;;;;;;;5068507;28;8867;-72
2023/09/09 14:21:09;;;;;;;;;10.00;10.00;;;;;;;;5067313;28;8806;-73
2023/09/09 14:23:36;;;;;;;;;7.00;7.00;;;;;;;;5068210;28;8840;-72
2023/09/09 14:26:04;;;;;;;;;7.50;7.50;;;;;;;;5068535;28;8912;-72
2023/09/09 14:28:32;;;;;;;;;7.75;7.75;;;;;;;;5070765;28;9541;-72
2023/09/09 14:30:58;;;;;;;;;10.00;10.00;;;;;;;;5071718;28;8802;-73
2023/09/09 14:33:23;;;;;;;;;11.67;9.33;;;;;;;;5071895;28;8809;-74
2023/09/09 14:35:48;;;;;;;;;8.00;8.00;;;;;;;;5071650;28;8798;-72
2023/09/09 14:38:13;;;;;;;;;9.67;9.67;;;;;;;;5071495;28;8818;-74
2023/09/09 14:40:39;;;;;;;;;0.00;0.00;;;;;;;;5071911;28;8923;-73
2023/09/09 14:43:04;;;;;;;;;8.00;8.00;;;;;;;;5070299;28;8826;-73
2023/09/09 14:45:30;;;;;;;;;10.67;10.00;;;;;;;;5071860;28;8914;-72
2023/09/09 14:47:55;;;;;;;;;12.00;10.33;;;;;;;;5070356;28;9517;-73
2023/09/09 14:50:21;;;;;;;;;12.67;12.67;;;;;;;;5071139;28;8799;-72
2023/09/09 14:52:49;;;;;;;;;10.00;10.00;;;;;;;;5070245;28;8880;-73
2023/09/09 14:55:14;;;;;;;;;11.25;9.50;;;;;;;;5071117;28;8806;-71
2023/09/09 14:57:39;;;;;;;;;9.00;9.00;;;;;;;;5071064;28;8841;-73
2023/09/09 15:00:05;;;;;;;;;11.00;10.00;;;;;;;;5069678;28;8857;-70
2023/09/09 15:02:30;;;;;;;;;9.00;9.00;;;;;;;;5071516;28;8787;-69
2023/09/09 15:04:56;;;;;;;;;11.00;11.00;;;;;;;;5071581;28;8799;-73
2023/09/09 15:07:21;;;;;;;;;9.67;8.33;;;;;;;;5069918;28;8915;-71
2023/09/09 15:09:46;;;;;;;;;10.33;10.33;;;;;;;;5071346;28;9525;-73
2023/09/09 15:12:14;;;;;;;;;9.00;9.00;;;;;;;;5071545;28;8845;-79
2023/09/09 15:14:39;;;;;;;;;10.00;10.00;;;;;;;;5070404;28;8830;-75
2023/09/09 15:17:05;;;;;;;;;9.33;9.33;;;;;;;;5071146;28;8868;-74
